Time;durP1;ratioP1;P1;durP2;ratioP2;P2;SDS_P1;SDS_P2;PMS_P1;PMS_P2;Temp;Humidity;BMP_temperature;BMP_pressure;BME280_temperature;BME280_humidity;BME280_pressure;Samples;Min_cycle;Max_cycle;Signal;HPM_P1;HPM_P2
2022/01/24 21:55:49;;;;;;;4.30;2.78;;;;;;;26.89;29.31;101747.91;5046311;27;20431;-69
2022/01/24 21:58:15;;;;;;;2.92;2.25;;;;;;;27.98;27.58;101728.00;5025767;28;20026;-65
2022/01/24 22:00:42;;;;;;;5.20;2.78;;;;;;;27.75;27.77;101728.41;5009934;28;20353;-69
2022/01/24 22:03:08;;;;;;;7.60;3.40;;;;;;;29.57;25.80;101729.88;4980550;28;20046;-63
2022/01/24 22:05:35;;;;;;;10.15;3.42;;;;;;;29.28;25.11;101715.56;4997331;28;20027;-62
2022/01/24 22:10:31;;;;;;;20.58;2.83;;;;;;;30.41;24.48;101708.44;4989378;28;20039;-60
2022/01/24 22:12:57;;;;;;;3.38;3.08;;;;;;;30.56;23.65;101710.88;5022304;28;20042;-61
2022/01/24 22:15:24;;;;;;;3.08;2.67;;;;;;;31.71;22.44;101708.41;4988343;28;20064;-60
2022/01/24 22:17:50;;;;;;;2.83;2.05;;;;;;;29.98;24.45;101700.09;4989830;28;20402;-60
2022/01/24 22:20:19;;;;;;;3.53;3.17;;;;;;;29.61;24.76;101703.53;4988430;28;20066;-61
2022/01/24 22:25:32;;;;;;;4.20;2.88;;;;;;;30.30;24.33;101689.84;4937327;28;20057;-59
2022/01/24 22:27:58;;;;;;;4.38;3.13;;;;;;;28.93;26.04;101693.88;4986611;28;20022;-59
2022/01/24 22:30:24;;;;;;;2.80;2.25;;;;;;;29.64;25.38;101694.78;4989224;28;20030;-59
2022/01/24 22:32:50;;;;;;;9.02;3.33;;;;;;;30.81;24.30;101707.22;4986580;28;20026;-60
2022/01/24 22:35:17;;;;;;;3.25;2.92;;;;;;;29.38;25.57;101698.56;4988863;28;20035;-59
2022/01/24 22:37:43;;;;;;;19.10;4.03;;;;;;;30.92;23.40;101700.06;4988206;28;20038;-60
2022/01/24 22:40:10;;;;;;;4.32;2.67;;;;;;;28.72;26.26;101695.81;5019746;28;20038;-59
2022/01/24 22:42:37;;;;;;;5.15;3.10;;;;;;;27.92;27.41;101696.69;4985643;28;20026;-59
2022/01/24 22:45:04;;;;;;;3.55;3.20;;;;;;;28.59;26.35;101699.44;4988618;28;20021;-59
2022/01/24 22:47:31;;;;;;;3.22;1.88;;;;;;;24.95;31.22;101708.34;4987796;28;20031;-51
2022/01/24 22:49:57;;;;;;;8.02;2.20;;;;;;;23.56;33.83;101702.22;5004019;28;20105;-50
2022/01/24 22:52:24;;;;;;;5.80;2.00;;;;;;;22.37;36.09;101705.69;4988202;28;20030;-51
2022/01/24 22:54:50;;;;;;;5.55;1.88;;;;;;;21.67;37.41;101699.69;4988358;28;20030;-51
2022/01/24 22:57:18;;;;;;;3.83;2.58;;;;;;;21.19;38.46;101699.34;4988497;28;20018;-50
2022/01/24 22:59:45;;;;;;;2.05;1.90;;;;;;;20.82;39.00;101697.84;4987177;28;20118;-51
2022/01/24 23:02:11;;;;;;;6.93;1.30;;;;;;;20.64;39.45;101706.03;4987765;28;20031;-50
2022/01/24 23:04:39;;;;;;;3.75;1.30;;;;;;;20.39;39.94;101702.28;4988378;28;20023;-52
2022/01/24 23:07:06;;;;;;;2.63;1.48;;;;;;;20.50;39.82;101696.59;4972016;28;20525;-50
2022/01/24 23:09:33;;;;;;;11.18;2.20;;;;;;;20.09;40.61;101688.13;4972508;28;20523;-52
2022/01/24 23:12:01;;;;;;;3.40;1.02;;;;;;;20.27;40.25;101690.84;4973832;28;20437;-49
2022/01/24 23:19:57;;;;;;;1.60;1.33;;;;;;;20.08;40.61;101664.72;4976709;28;20062;-53
2022/01/24 23:22:31;;;;;;;1.63;1.50;;;;;;;20.20;40.46;101682.44;4977475;28;20041;-53
2022/01/24 23:25:00;;;;;;;4.53;2.33;;;;;;;19.91;41.08;101688.16;4978545;28;20033;-54
2022/01/24 23:27:28;;;;;;;2.00;1.00;;;;;;;19.88;40.97;101678.47;4977438;28;20034;-53
2022/01/24 23:29:59;;;;;;;3.20;1.00;;;;;;;19.86;41.10;101672.31;4976824;28;20093;-53
2022/01/24 23:32:49;;;;;;;9.60;1.75;;;;;;;19.80;41.04;101664.75;4977136;28;20031;-53
2022/01/24 23:43:18;;;;;;;1.63;1.02;;;;;;;19.79;41.14;101677.50;4976923;28;20488;-53
2022/01/24 23:45:44;;;;;;;2.50;1.25;;;;;;;19.97;40.69;101670.41;4976646;28;20044;-52
2022/01/24 23:48:11;;;;;;;0.57;0.50;;;;;;;19.88;40.69;101662.16;5008440;28;20464;-53
2022/01/24 23:50:37;;;;;;;3.15;1.75;;;;;;;19.84;40.97;101658.06;4975008;28;20106;-53
2022/01/24 23:53:03;;;;;;;1.10;1.00;;;;;;;19.93;40.83;101657.13;4975651;28;20468;-54
2022/01/24 23:55:30;;;;;;;2.78;1.30;;;;;;;19.83;41.09;101650.06;5007335;28;20039;-53
2022/01/24 23:58:04;;;;;;;1.88;1.52;;;;;;;19.77;40.98;101655.06;5007429;28;20105;-53
